sensor_id;sensor_type;location;lat;lon;timestamp;pressure;altitude;pressure_sealevel;temperature
62107;BMP280;48087;32.600;-97.100;2022-10-16T00:01:32;;;;30.277475
62107;BMP280;48087;32.600;-97.100;2022-10-16T00:06:36;;;;30.166365
62107;BMP280;48087;32.600;-97.100;2022-10-16T00:11:41;;;;29.9997
62107;BMP280;48087;32.600;-97.100;2022-10-16T00:16:44;;;;29.777479999999997
62107;BMP280;48087;32.600;-97.100;2022-10-16T00:21:48;;;;29.833035000000002
62107;BMP280;48087;32.600;-97.100;2022-10-16T00:26:52;;;;29.777479999999997
62107;BMP280;48087;32.600;-97.100;2022-10-16T00:31:57;;;;29.666370000000004
62107;BMP280;48087;32.600;-97.100;2022-10-16T00:37:01;;;;29.499704999999995
62107;BMP280;48087;32.600;-97.100;2022-10-16T00:42:05;;;;29.499704999999995
62107;BMP280;48087;32.600;-97.100;2022-10-16T00:47:09;;;;29.44415
62107;BMP280;48087;32.600;-97.100;2022-10-16T00:52:13;;;;29.277485000000002
62107;BMP280;48087;32.600;-97.100;2022-10-16T00:57:16;;;;29.166375
62107;BMP280;48087;32.600;-97.100;2022-10-16T01:02:21;;;;28.99971
62107;BMP280;48087;32.600;-97.100;2022-10-16T01:07:29;;;;28.777489999999997
62107;BMP280;48087;32.600;-97.100;2022-10-16T01:12:32;;;;28.721935000000002
62107;BMP280;48087;32.600;-97.100;2022-10-16T01:17:34;;;;28.666379999999997
62107;BMP280;48087;32.600;-97.100;2022-10-16T01:22:38;;;;28.499715
62107;BMP280;48087;32.600;-97.100;2022-10-16T01:27:40;;;;28.44416
62107;BMP280;48087;32.600;-97.100;2022-10-16T01:32:45;;;;28.277495000000002
62107;BMP280;48087;32.600;-97.100;2022-10-16T01:37:50;;;;28.221939999999996
62107;BMP280;48087;32.600;-97.100;2022-10-16T01:42:52;;;;28.221939999999996
62107;BMP280;48087;32.600;-97.100;2022-10-16T01:47:56;;;;28.055274999999998
62107;BMP280;48087;32.600;-97.100;2022-10-16T01:53:00;;;;27.944164999999998
62107;BMP280;48087;32.600;-97.100;2022-10-16T01:58:04;;;;27.7775
62107;BMP280;48087;32.600;-97.100;2022-10-16T02:03:07;;;;27.555279999999996
62107;BMP280;48087;32.600;-97.100;2022-10-16T02:08:13;;;;27.33306
62107;BMP280;48087;32.600;-97.100;2022-10-16T02:13:17;;;;27.33306
62107;BMP280;48087;32.600;-97.100;2022-10-16T02:18:20;;;;27.11084
62107;BMP280;48087;32.600;-97.100;2022-10-16T02:23:24;;;;26.721954999999998
62107;BMP280;48087;32.600;-97.100;2022-10-16T02:28:30;;;;26.499735
62107;BMP280;48087;32.600;-97.100;2022-10-16T02:33:31;;;;26.166404999999997
62107;BMP280;48087;32.600;-97.100;2022-10-16T02:38:36;;;;25.777520000000003
62107;BMP280;48087;32.600;-97.100;2022-10-16T02:43:39;;;;25.666410000000003
62107;BMP280;48087;32.600;-97.100;2022-10-16T02:48:44;;;;25.333079999999995
62107;BMP280;48087;32.600;-97.100;2022-10-16T02:53:47;;;;24.944195000000004
62107;BMP280;48087;32.600;-97.100;2022-10-16T02:58:52;;;;24.88864
62107;BMP280;48087;32.600;-97.100;2022-10-16T03:03:55;;;;24.721975
62107;BMP280;48087;32.600;-97.100;2022-10-16T03:13:47;;;;24.833085
62107;BMP280;48087;32.600;-97.100;2022-10-16T03:18:51;;;;24.88864
62107;BMP280;48087;32.600;-97.100;2022-10-16T03:23:57;;;;24.721975
62107;BMP280;48087;32.600;-97.100;2022-10-16T03:29:02;;;;24.666420000000002
62107;BMP280;48087;32.600;-97.100;2022-10-16T03:34:05;;;;24.610864999999997
62107;BMP280;48087;32.600;-97.100;2022-10-16T03:39:10;;;;24.33309
62107;BMP280;48087;32.600;-97.100;2022-10-16T03:44:14;;;;23.944204999999997
62107;BMP280;48087;32.600;-97.100;2022-10-16T03:49:17;;;;23.721985
62107;BMP280;48087;32.600;-97.100;2022-10-16T03:54:21;;;;23.77754
62107;BMP280;48087;32.600;-97.100;2022-10-16T03:59:24;;;;23.944204999999997
62107;BMP280;48087;32.600;-97.100;2022-10-16T04:04:27;;;;23.88865
62107;BMP280;48087;32.600;-97.100;2022-10-16T04:09:31;;;;23.999760000000002
62107;BMP280;48087;32.600;-97.100;2022-10-16T04:14:36;;;;23.999760000000002
62107;BMP280;48087;32.600;-97.100;2022-10-16T04:19:40;;;;23.833095000000004
62107;BMP280;48087;32.600;-97.100;2022-10-16T04:24:43;;;;23.833095000000004
62107;BMP280;48087;32.600;-97.100;2022-10-16T04:29:47;;;;23.944204999999997
62107;BMP280;48087;32.600;-97.100;2022-10-16T04:34:51;;;;24.166425
62107;BMP280;48087;32.600;-97.100;2022-10-16T04:39:56;;;;24.388645000000004
62107;BMP280;48087;32.600;-97.100;2022-10-16T04:44:59;;;;24.388645000000004
62107;BMP280;48087;32.600;-97.100;2022-10-16T04:50:03;;;;24.4442
62107;BMP280;48087;32.600;-97.100;2022-10-16T04:55:08;;;;24.388645000000004
62107;BMP280;48087;32.600;-97.100;2022-10-16T05:00:12;;;;24.555310000000002
62107;BMP280;48087;32.600;-97.100;2022-10-16T05:05:16;;;;24.555310000000002
62107;BMP280;48087;32.600;-97.100;2022-10-16T05:10:19;;;;24.666420000000002
62107;BMP280;48087;32.600;-97.100;2022-10-16T05:15:24;;;;24.555310000000002
62107;BMP280;48087;32.600;-97.100;2022-10-16T05:20:27;;;;24.721975
62107;BMP280;48087;32.600;-97.100;2022-10-16T05:25:32;;;;24.610864999999997
62107;BMP280;48087;32.600;-97.100;2022-10-16T05:30:37;;;;24.555310000000002
62107;BMP280;48087;32.600;-97.100;2022-10-16T05:35:39;;;;24.666420000000002
62107;BMP280;48087;32.600;-97.100;2022-10-16T05:40:49;;;;24.721975
62107;BMP280;48087;32.600;-97.100;2022-10-16T05:45:53;;;;24.610864999999997
62107;BMP280;48087;32.600;-97.100;2022-10-16T05:50:57;;;;24.4442
62107;BMP280;48087;32.600;-97.100;2022-10-16T05:55:56;;;;24.499754999999997
62107;BMP280;48087;32.600;-97.100;2022-10-16T06:01:00;;;;24.610864999999997
62107;BMP280;48087;32.600;-97.100;2022-10-16T06:06:07;;;;24.4442
62107;BMP280;48087;32.600;-97.100;2022-10-16T06:11:07;;;;24.33309
62107;BMP280;48087;32.600;-97.100;2022-10-16T06:16:11;;;;24.221979999999995
62107;BMP280;48087;32.600;-97.100;2022-10-16T06:21:16;;;;24.221979999999995
62107;BMP280;48087;32.600;-97.100;2022-10-16T06:26:19;;;;24.110870000000002
62107;BMP280;48087;32.600;-97.100;2022-10-16T06:31:24;;;;24.110870000000002
62107;BMP280;48087;32.600;-97.100;2022-10-16T06:36:27;;;;24.110870000000002
62107;BMP280;48087;32.600;-97.100;2022-10-16T06:41:32;;;;24.221979999999995
62107;BMP280;48087;32.600;-97.100;2022-10-16T06:46:35;;;;24.166425
62107;BMP280;48087;32.600;-97.100;2022-10-16T06:51:40;;;;23.999760000000002
62107;BMP280;48087;32.600;-97.100;2022-10-16T06:56:42;;;;24.110870000000002
62107;BMP280;48087;32.600;-97.100;2022-10-16T07:01:47;;;;24.055314999999997
62107;BMP280;48087;32.600;-97.100;2022-10-16T07:06:50;;;;23.88865
62107;BMP280;48087;32.600;-97.100;2022-10-16T07:11:55;;;;23.721985
62107;BMP280;48087;32.600;-97.100;2022-10-16T07:16:59;;;;23.77754
62107;BMP280;48087;32.600;-97.100;2022-10-16T07:22:03;;;;23.721985
62107;BMP280;48087;32.600;-97.100;2022-10-16T07:27:06;;;;23.833095000000004
62107;BMP280;48087;32.600;-97.100;2022-10-16T07:32:11;;;;23.833095000000004
62107;BMP280;48087;32.600;-97.100;2022-10-16T07:37:14;;;;23.721985
62107;BMP280;48087;32.600;-97.100;2022-10-16T07:42:19;;;;23.721985
62107;BMP280;48087;32.600;-97.100;2022-10-16T07:47:23;;;;23.77754
62107;BMP280;48087;32.600;-97.100;2022-10-16T07:52:27;;;;23.721985
62107;BMP280;48087;32.600;-97.100;2022-10-16T07:57:30;;;;23.610875
62107;BMP280;48087;32.600;-97.100;2022-10-16T08:02:35;;;;23.499764999999996
62107;BMP280;48087;32.600;-97.100;2022-10-16T08:07:38;;;;23.388654999999996
62107;BMP280;48087;32.600;-97.100;2022-10-16T08:12:43;;;;23.277545000000003
62107;BMP280;48087;32.600;-97.100;2022-10-16T08:17:53;;;;23.388654999999996
62107;BMP280;48087;32.600;-97.100;2022-10-16T08:22:51;;;;23.388654999999996
62107;BMP280;48087;32.600;-97.100;2022-10-16T08:27:54;;;;23.333099999999998
62107;BMP280;48087;32.600;-97.100;2022-10-16T08:32:58;;;;23.166435
62107;BMP280;48087;32.600;-97.100;2022-10-16T08:38:02;;;;23.110879999999998
62107;BMP280;48087;32.600;-97.100;2022-10-16T08:43:12;;;;23.110879999999998
62107;BMP280;48087;32.600;-97.100;2022-10-16T08:48:16;;;;23.055325
62107;BMP280;48087;32.600;-97.100;2022-10-16T08:53:15;;;;23.166435
62107;BMP280;48087;32.600;-97.100;2022-10-16T08:58:18;;;;22.99977
62107;BMP280;48087;32.600;-97.100;2022-10-16T09:03:42;;;;22.944214999999996
62107;BMP280;48087;32.600;-97.100;2022-10-16T09:08:29;;;;22.833104999999996
62107;BMP280;48087;32.600;-97.100;2022-10-16T09:13:33;;;;22.833104999999996
62107;BMP280;48087;32.600;-97.100;2022-10-16T09:18:35;;;;22.833104999999996
62107;BMP280;48087;32.600;-97.100;2022-10-16T09:23:39;;;;22.833104999999996
62107;BMP280;48087;32.600;-97.100;2022-10-16T09:28:42;;;;22.88866
62107;BMP280;48087;32.600;-97.100;2022-10-16T09:33:48;;;;22.944214999999996
62107;BMP280;48087;32.600;-97.100;2022-10-16T09:39:00;;;;22.99977
62107;BMP280;48087;32.600;-97.100;2022-10-16T09:43:55;;;;22.99977
62107;BMP280;48087;32.600;-97.100;2022-10-16T09:48:58;;;;22.99977
62107;BMP280;48087;32.600;-97.100;2022-10-16T09:54:12;;;;23.110879999999998
62107;BMP280;48087;32.600;-97.100;2022-10-16T09:59:08;;;;23.166435
62107;BMP280;48087;32.600;-97.100;2022-10-16T10:04:11;;;;23.166435
62107;BMP280;48087;32.600;-97.100;2022-10-16T10:09:16;;;;23.166435
62107;BMP280;48087;32.600;-97.100;2022-10-16T10:14:20;;;;23.221989999999998
62107;BMP280;48087;32.600;-97.100;2022-10-16T10:19:23;;;;23.221989999999998
62107;BMP280;48087;32.600;-97.100;2022-10-16T10:24:27;;;;23.221989999999998
62107;BMP280;48087;32.600;-97.100;2022-10-16T10:29:33;;;;23.110879999999998
62107;BMP280;48087;32.600;-97.100;2022-10-16T10:34:39;;;;23.110879999999998
62107;BMP280;48087;32.600;-97.100;2022-10-16T10:39:39;;;;23.110879999999998
62107;BMP280;48087;32.600;-97.100;2022-10-16T10:44:49;;;;23.277545000000003
62107;BMP280;48087;32.600;-97.100;2022-10-16T10:49:48;;;;23.666429999999995
62107;BMP280;48087;32.600;-97.100;2022-10-16T10:54:51;;;;23.833095000000004
62107;BMP280;48087;32.600;-97.100;2022-10-16T10:59:56;;;;21.22201
62107;BMP280;48087;32.600;-97.100;2022-10-16T11:05:02;;;;20.055354999999995
62107;BMP280;48087;32.600;-97.100;2022-10-16T11:10:02;;;;19.499804999999995
62107;BMP280;48087;32.600;-97.100;2022-10-16T11:15:10;;;;19.166475
62107;BMP280;48087;32.600;-97.100;2022-10-16T11:20:12;;;;19.166475
62107;BMP280;48087;32.600;-97.100;2022-10-16T11:25:16;;;;19.110920000000004
62107;BMP280;48087;32.600;-97.100;2022-10-16T11:30:18;;;;19.055365
62107;BMP280;48087;32.600;-97.100;2022-10-16T11:35:24;;;;19.055365
62107;BMP280;48087;32.600;-97.100;2022-10-16T11:40:28;;;;18.99981
62107;BMP280;48087;32.600;-97.100;2022-10-16T11:45:32;;;;18.8887
62107;BMP280;48087;32.600;-97.100;2022-10-16T11:50:34;;;;18.44426
62107;BMP280;48087;32.600;-97.100;2022-10-16T11:55:39;;;;18.277595
62107;BMP280;48087;32.600;-97.100;2022-10-16T12:00:43;;;;18.166485
62107;BMP280;48087;32.600;-97.100;2022-10-16T12:05:52;;;;18.110929999999996
62107;BMP280;48087;32.600;-97.100;2022-10-16T12:10:49;;;;18.166485
62107;BMP280;48087;32.600;-97.100;2022-10-16T12:16:03;;;;18.166485
62107;BMP280;48087;32.600;-97.100;2022-10-16T12:20:58;;;;18.22204
62107;BMP280;48087;32.600;-97.100;2022-10-16T12:26:02;;;;18.22204
62107;BMP280;48087;32.600;-97.100;2022-10-16T12:31:06;;;;18.22204
62107;BMP280;48087;32.600;-97.100;2022-10-16T12:36:12;;;;18.22204
62107;BMP280;48087;32.600;-97.100;2022-10-16T12:41:23;;;;18.22204
62107;BMP280;48087;32.600;-97.100;2022-10-16T12:46:21;;;;18.166485
62107;BMP280;48087;32.600;-97.100;2022-10-16T12:51:22;;;;18.22204
62107;BMP280;48087;32.600;-97.100;2022-10-16T12:56:28;;;;18.277595
62107;BMP280;48087;32.600;-97.100;2022-10-16T13:01:34;;;;18.277595
62107;BMP280;48087;32.600;-97.100;2022-10-16T13:06:36;;;;18.33315
62107;BMP280;48087;32.600;-97.100;2022-10-16T13:11:43;;;;18.33315
62107;BMP280;48087;32.600;-97.100;2022-10-16T13:16:45;;;;18.33315
62107;BMP280;48087;32.600;-97.100;2022-10-16T13:21:47;;;;18.33315
62107;BMP280;48087;32.600;-97.100;2022-10-16T13:26:52;;;;18.277595
62107;BMP280;48087;32.600;-97.100;2022-10-16T13:31:53;;;;18.110929999999996
62107;BMP280;48087;32.600;-97.100;2022-10-16T13:36:58;;;;17.999820000000003
62107;BMP280;48087;32.600;-97.100;2022-10-16T13:42:04;;;;17.88871
62107;BMP280;48087;32.600;-97.100;2022-10-16T13:47:05;;;;17.7776
62107;BMP280;48087;32.600;-97.100;2022-10-16T13:52:15;;;;17.7776
62107;BMP280;48087;32.600;-97.100;2022-10-16T13:57:14;;;;17.7776
62107;BMP280;48087;32.600;-97.100;2022-10-16T14:02:19;;;;17.722044999999998
62107;BMP280;48087;32.600;-97.100;2022-10-16T14:07:23;;;;17.722044999999998
62107;BMP280;48087;32.600;-97.100;2022-10-16T14:12:25;;;;17.722044999999998
62107;BMP280;48087;32.600;-97.100;2022-10-16T14:17:30;;;;17.722044999999998
62107;BMP280;48087;32.600;-97.100;2022-10-16T14:22:35;;;;17.722044999999998
62107;BMP280;48087;32.600;-97.100;2022-10-16T14:27:37;;;;17.7776
62107;BMP280;48087;32.600;-97.100;2022-10-16T14:32:42;;;;17.944264999999998
62107;BMP280;48087;32.600;-97.100;2022-10-16T14:37:45;;;;17.944264999999998
62107;BMP280;48087;32.600;-97.100;2022-10-16T14:42:50;;;;17.999820000000003
62107;BMP280;48087;32.600;-97.100;2022-10-16T14:47:54;;;;18.055374999999998
62107;BMP280;48087;32.600;-97.100;2022-10-16T14:52:58;;;;18.22204
62107;BMP280;48087;32.600;-97.100;2022-10-16T14:58:01;;;;18.277595
62107;BMP280;48087;32.600;-97.100;2022-10-16T15:03:05;;;;18.277595
62107;BMP280;48087;32.600;-97.100;2022-10-16T15:08:10;;;;18.33315
62107;BMP280;48087;32.600;-97.100;2022-10-16T15:13:14;;;;18.22204
62107;BMP280;48087;32.600;-97.100;2022-10-16T15:18:17;;;;18.33315
62107;BMP280;48087;32.600;-97.100;2022-10-16T15:23:21;;;;18.555370000000003
62107;BMP280;48087;32.600;-97.100;2022-10-16T15:28:25;;;;18.777589999999996
62107;BMP280;48087;32.600;-97.100;2022-10-16T15:33:30;;;;18.99981
62107;BMP280;48087;32.600;-97.100;2022-10-16T15:38:34;;;;19.222029999999997
62107;BMP280;48087;32.600;-97.100;2022-10-16T15:43:37;;;;19.610915
62107;BMP280;48087;32.600;-97.100;2022-10-16T15:48:42;;;;20.222020000000004
62107;BMP280;48087;32.600;-97.100;2022-10-16T15:53:45;;;;20.388685000000002
62107;BMP280;48087;32.600;-97.100;2022-10-16T15:58:50;;;;21.055345000000003
62107;BMP280;48087;32.600;-97.100;2022-10-16T16:03:53;;;;21.388675
62107;BMP280;48087;32.600;-97.100;2022-10-16T16:08:58;;;;21.166454999999996
62107;BMP280;48087;32.600;-97.100;2022-10-16T16:14:01;;;;21.166454999999996
62107;BMP280;48087;32.600;-97.100;2022-10-16T16:19:05;;;;21.166454999999996
62107;BMP280;48087;32.600;-97.100;2022-10-16T16:24:09;;;;20.833125
62107;BMP280;48087;32.600;-97.100;2022-10-16T16:29:14;;;;20.888679999999997
62107;BMP280;48087;32.600;-97.100;2022-10-16T16:34:17;;;;21.166454999999996
62107;BMP280;48087;32.600;-97.100;2022-10-16T16:39:21;;;;21.722004999999996
62107;BMP280;48087;32.600;-97.100;2022-10-16T16:44:26;;;;22.222
62107;BMP280;48087;32.600;-97.100;2022-10-16T16:49:29;;;;22.166445000000003
62107;BMP280;48087;32.600;-97.100;2022-10-16T16:54:33;;;;21.77756
62107;BMP280;48087;32.600;-97.100;2022-10-16T16:59:37;;;;22.277554999999996
62107;BMP280;48087;32.600;-97.100;2022-10-16T17:04:41;;;;22.44422
62107;BMP280;48087;32.600;-97.100;2022-10-16T17:09:45;;;;22.610885
62107;BMP280;48087;32.600;-97.100;2022-10-16T17:14:50;;;;22.055335
62107;BMP280;48087;32.600;-97.100;2022-10-16T17:19:53;;;;21.610895000000003
62107;BMP280;48087;32.600;-97.100;2022-10-16T17:24:56;;;;21.33312
62107;BMP280;48087;32.600;-97.100;2022-10-16T17:30:01;;;;21.277565
62107;BMP280;48087;32.600;-97.100;2022-10-16T17:35:05;;;;21.388675
62107;BMP280;48087;32.600;-97.100;2022-10-16T17:40:09;;;;21.277565
62107;BMP280;48087;32.600;-97.100;2022-10-16T17:45:13;;;;21.22201
62107;BMP280;48087;32.600;-97.100;2022-10-16T17:50:17;;;;21.33312
62107;BMP280;48087;32.600;-97.100;2022-10-16T17:55:20;;;;21.722004999999996
62107;BMP280;48087;32.600;-97.100;2022-10-16T18:00:24;;;;21.77756
62107;BMP280;48087;32.600;-97.100;2022-10-16T18:05:45;;;;21.722004999999996
62107;BMP280;48087;32.600;-97.100;2022-10-16T18:10:48;;;;21.88867
62107;BMP280;48087;32.600;-97.100;2022-10-16T18:15:58;;;;21.944225
62107;BMP280;48087;32.600;-97.100;2022-10-16T18:20:56;;;;22.277554999999996
62107;BMP280;48087;32.600;-97.100;2022-10-16T18:26:01;;;;22.777549999999998
62107;BMP280;48087;32.600;-97.100;2022-10-16T18:31:05;;;;22.277554999999996
62107;BMP280;48087;32.600;-97.100;2022-10-16T18:36:10;;;;22.721995000000003
62107;BMP280;48087;32.600;-97.100;2022-10-16T18:41:12;;;;22.777549999999998
62107;BMP280;48087;32.600;-97.100;2022-10-16T18:46:18;;;;22.610885
62107;BMP280;48087;32.600;-97.100;2022-10-16T18:51:21;;;;22.499775
62107;BMP280;48087;32.600;-97.100;2022-10-16T18:56:25;;;;22.277554999999996
62107;BMP280;48087;32.600;-97.100;2022-10-16T19:01:29;;;;22.277554999999996
62107;BMP280;48087;32.600;-97.100;2022-10-16T19:06:33;;;;22.222
62107;BMP280;48087;32.600;-97.100;2022-10-16T19:11:36;;;;21.833115
62107;BMP280;48087;32.600;-97.100;2022-10-16T19:16:41;;;;21.77756
62107;BMP280;48087;32.600;-97.100;2022-10-16T19:21:44;;;;21.499785000000003
62107;BMP280;48087;32.600;-97.100;2022-10-16T19:26:49;;;;21.33312
62107;BMP280;48087;32.600;-97.100;2022-10-16T19:31:53;;;;21.166454999999996
62107;BMP280;48087;32.600;-97.100;2022-10-16T19:36:57;;;;20.888679999999997
62107;BMP280;48087;32.600;-97.100;2022-10-16T19:42:00;;;;20.999789999999997
62107;BMP280;48087;32.600;-97.100;2022-10-16T19:47:05;;;;21.1109
62107;BMP280;48087;32.600;-97.100;2022-10-16T19:52:09;;;;21.166454999999996
62107;BMP280;48087;32.600;-97.100;2022-10-16T19:57:12;;;;21.166454999999996
62107;BMP280;48087;32.600;-97.100;2022-10-16T20:02:16;;;;21.22201
62107;BMP280;48087;32.600;-97.100;2022-10-16T20:12:58;;;;21.499785000000003
62107;BMP280;48087;32.600;-97.100;2022-10-16T20:18:02;;;;21.833115
62107;BMP280;48087;32.600;-97.100;2022-10-16T20:23:06;;;;22.110889999999998
62107;BMP280;48087;32.600;-97.100;2022-10-16T20:28:12;;;;22.222
62107;BMP280;48087;32.600;-97.100;2022-10-16T20:33:15;;;;22.277554999999996
62107;BMP280;48087;32.600;-97.100;2022-10-16T20:38:18;;;;22.110889999999998
62107;BMP280;48087;32.600;-97.100;2022-10-16T20:43:22;;;;22.055335
62107;BMP280;48087;32.600;-97.100;2022-10-16T20:48:26;;;;21.88867
62107;BMP280;48087;32.600;-97.100;2022-10-16T20:53:30;;;;21.88867
62107;BMP280;48087;32.600;-97.100;2022-10-16T20:58:33;;;;21.77756
62107;BMP280;48087;32.600;-97.100;2022-10-16T21:03:37;;;;21.999779999999998
62107;BMP280;48087;32.600;-97.100;2022-10-16T21:08:41;;;;21.944225
62107;BMP280;48087;32.600;-97.100;2022-10-16T21:13:44;;;;21.722004999999996
62107;BMP280;48087;32.600;-97.100;2022-10-16T21:18:49;;;;21.77756
62107;BMP280;48087;32.600;-97.100;2022-10-16T21:23:52;;;;21.66645
62107;BMP280;48087;32.600;-97.100;2022-10-16T21:28:56;;;;21.388675
62107;BMP280;48087;32.600;-97.100;2022-10-16T21:34:01;;;;21.444229999999997
62107;BMP280;48087;32.600;-97.100;2022-10-16T21:39:04;;;;21.388675
62107;BMP280;48087;32.600;-97.100;2022-10-16T21:44:09;;;;21.33312
62107;BMP280;48087;32.600;-97.100;2022-10-16T21:49:13;;;;21.33312
62107;BMP280;48087;32.600;-97.100;2022-10-16T21:54:18;;;;21.33312
62107;BMP280;48087;32.600;-97.100;2022-10-16T21:59:20;;;;21.277565
62107;BMP280;48087;32.600;-97.100;2022-10-16T22:04:24;;;;21.166454999999996
62107;BMP280;48087;32.600;-97.100;2022-10-16T22:09:28;;;;21.055345000000003
62107;BMP280;48087;32.600;-97.100;2022-10-16T22:14:33;;;;20.777570000000004
62107;BMP280;48087;32.600;-97.100;2022-10-16T22:19:37;;;;20.722015
62107;BMP280;48087;32.600;-97.100;2022-10-16T22:24:40;;;;20.66646
62107;BMP280;48087;32.600;-97.100;2022-10-16T22:29:43;;;;20.722015
62107;BMP280;48087;32.600;-97.100;2022-10-16T22:34:47;;;;20.722015
62107;BMP280;48087;32.600;-97.100;2022-10-16T22:39:52;;;;20.888679999999997
62107;BMP280;48087;32.600;-97.100;2022-10-16T22:44:56;;;;20.833125
62107;BMP280;48087;32.600;-97.100;2022-10-16T22:50:00;;;;20.777570000000004
62107;BMP280;48087;32.600;-97.100;2022-10-16T22:55:04;;;;20.777570000000004
62107;BMP280;48087;32.600;-97.100;2022-10-16T23:00:09;;;;20.66646
62107;BMP280;48087;32.600;-97.100;2022-10-16T23:05:11;;;;20.722015
62107;BMP280;48087;32.600;-97.100;2022-10-16T23:10:16;;;;20.66646
62107;BMP280;48087;32.600;-97.100;2022-10-16T23:15:20;;;;20.66646
62107;BMP280;48087;32.600;-97.100;2022-10-16T23:20:24;;;;20.610904999999995
62107;BMP280;48087;32.600;-97.100;2022-10-16T23:25:27;;;;20.66646
62107;BMP280;48087;32.600;-97.100;2022-10-16T23:30:31;;;;20.55535
62107;BMP280;48087;32.600;-97.100;2022-10-16T23:35:37;;;;20.499795000000002
62107;BMP280;48087;32.600;-97.100;2022-10-16T23:40:39;;;;20.444239999999997
62107;BMP280;48087;32.600;-97.100;2022-10-16T23:45:44;;;;20.388685000000002
62107;BMP280;48087;32.600;-97.100;2022-10-16T23:50:47;;;;20.333129999999997
62107;BMP280;48087;32.600;-97.100;2022-10-16T23:55:51;;;;20.277575
